Time,TemperatureF,DewpointF,PressureIn,WindDirection,WindDirectionDegrees,WindSpeedMPH,WindSpeedGustMPH,Humidity,HourlyPrecipIn,Conditions,Clouds,dailyrainin,SoftwareType,DateUTC
2013-01-28 00:01:00,44.0,27.0,29.83,SSE,158,1.0,4.0,50,0.00,,,0.07,,2013-01-28 08:01:00,
2013-01-28 00:11:00,44.0,27.0,29.83,SSE,158,1.0,4.0,50,0.00,,,0.07,,2013-01-28 08:11:00,
2013-01-28 00:21:00,43.0,26.0,29.84,SSE,160,4.0,7.0,50,0.00,,,0.07,,2013-01-28 08:21:00,
2013-01-28 00:31:00,43.0,26.0,29.84,SSE,160,4.0,7.0,50,0.00,,,0.07,,2013-01-28 08:31:00,
2013-01-28 00:41:00,43.0,26.0,29.84,SSE,160,4.0,7.0,50,0.00,,,0.07,,2013-01-28 08:41:00,
2013-01-28 00:52:00,43.0,25.0,29.84,South,181,7.0,9.0,49,0.00,,,0.07,,2013-01-28 08:52:00,
2013-01-28 01:01:00,43.0,25.0,29.83,SSW,193,2.0,6.0,49,0.00,,,0.06,,2013-01-28 09:01:00,
2013-01-28 01:11:00,43.0,25.0,29.83,SSW,193,2.0,6.0,49,0.00,,,0.06,,2013-01-28 09:11:00,
2013-01-28 01:21:00,43.0,25.0,29.84,SSW,194,10.0,11.0,49,0.00,,,0.06,,2013-01-28 09:21:00,
2013-01-28 01:32:00,43.0,25.0,29.84,SSW,194,10.0,11.0,49,0.00,,,0.06,,2013-01-28 09:32:00,
2013-01-28 01:41:00,43.0,25.0,29.84,SSW,194,10.0,11.0,49,0.00,,,0.06,,2013-01-28 09:41:00,
2013-01-28 01:52:00,43.0,24.0,29.85,SSW,213,5.0,6.0,46,0.00,,,0.06,,2013-01-28 09:52:00,
2013-01-28 02:01:00,43.0,23.0,29.85,North,0,0.0,2.0,45,0.00,,,0.06,,2013-01-28 10:01:00,
2013-01-28 02:11:00,43.0,23.0,29.85,North,0,0.0,2.0,45,0.00,,,0.06,,2013-01-28 10:11:00,
2013-01-28 02:21:00,42.0,24.0,29.85,SW,218,2.0,6.0,48,0.01,,,0.07,,2013-01-28 10:21:00,
2013-01-28 02:31:00,42.0,24.0,29.85,SW,218,2.0,6.0,48,0.01,,,0.07,,2013-01-28 10:31:00,
2013-01-28 02:41:00,42.0,24.0,29.85,SW,218,2.0,6.0,48,0.01,,,0.07,,2013-01-28 10:41:00,
2013-01-28 02:52:00,42.0,24.0,29.85,North,355,3.0,5.0,49,0.01,,,0.07,,2013-01-28 10:52:00,
2013-01-28 03:01:00,43.0,24.0,29.85,North,357,4.0,8.0,47,0.01,,,0.07,,2013-01-28 11:01:00,
2013-01-28 03:11:00,43.0,24.0,29.85,North,357,4.0,8.0,47,0.01,,,0.07,,2013-01-28 11:11:00,
2013-01-28 03:21:00,42.0,24.0,29.86,North,0,0.0,1.0,49,0.00,,,0.06,,2013-01-28 11:21:00,
2013-01-28 03:32:00,42.0,24.0,29.86,North,0,0.0,1.0,49,0.00,,,0.06,,2013-01-28 11:32:00,
2013-01-28 03:41:00,42.0,24.0,29.86,North,0,0.0,1.0,49,0.00,,,0.06,,2013-01-28 11:41:00,
2013-01-28 03:52:00,42.0,25.0,29.87,WNW,284,2.0,7.0,51,0.00,,,0.06,,2013-01-28 11:52:00,
2013-01-28 04:02:00,42.0,24.0,29.86,WNW,294,7.0,8.0,48,0.00,,,0.06,,2013-01-28 12:02:00,
2013-01-28 04:11:00,42.0,24.0,29.86,WNW,294,7.0,8.0,48,0.00,,,0.06,,2013-01-28 12:11:00,
2013-01-28 04:22:00,42.0,23.0,29.86,North,350,3.0,9.0,47,0.00,,,0.06,,2013-01-28 12:22:00,
2013-01-28 04:32:00,42.0,23.0,29.86,North,350,3.0,9.0,47,0.00,,,0.06,,2013-01-28 12:32:00,
2013-01-28 04:42:00,42.0,23.0,29.86,North,350,3.0,9.0,47,0.00,,,0.06,,2013-01-28 12:42:00,
2013-01-28 04:52:00,42.0,25.0,29.86,WNW,298,3.0,5.0,50,0.00,,,0.06,,2013-01-28 12:52:00,
2013-01-28 05:02:00,42.0,25.0,29.86,WNW,298,3.0,5.0,50,0.00,,,0.06,,2013-01-28 13:02:00,
2013-01-28 05:11:00,42.0,25.0,29.86,WNW,298,3.0,5.0,50,0.00,,,0.06,,2013-01-28 13:11:00,
2013-01-28 05:22:00,41.0,24.0,29.85,SSE,147,4.0,6.0,51,0.00,,,0.06,,2013-01-28 13:22:00,
2013-01-28 05:33:00,41.0,24.0,29.85,SSE,147,4.0,6.0,51,0.00,,,0.06,,2013-01-28 13:33:00,
2013-01-28 05:42:00,41.0,24.0,29.85,SSE,147,4.0,6.0,51,0.00,,,0.06,,2013-01-28 13:42:00,
2013-01-28 05:52:00,41.0,23.0,29.86,North,0,0.0,3.0,48,0.00,,,0.06,,2013-01-28 13:52:00,
2013-01-28 06:02:00,41.0,24.0,29.86,SE,144,6.0,6.0,50,0.00,,,0.06,,2013-01-28 14:02:00,
2013-01-28 06:11:00,41.0,24.0,29.86,SE,144,6.0,6.0,50,0.00,,,0.06,,2013-01-28 14:11:00,
2013-01-28 06:22:00,41.0,23.0,29.87,SE,144,5.0,7.0,49,0.00,,,0.06,,2013-01-28 14:22:00,
2013-01-28 06:32:00,41.0,23.0,29.87,SE,144,5.0,7.0,49,0.00,,,0.06,,2013-01-28 14:32:00,
2013-01-28 06:42:00,41.0,23.0,29.87,SE,144,5.0,7.0,49,0.00,,,0.06,,2013-01-28 14:42:00,
2013-01-28 06:52:00,41.0,24.0,29.88,SE,144,6.0,7.0,50,0.01,,,0.07,,2013-01-28 14:52:00,
2013-01-28 07:02:00,41.0,24.0,29.89,SE,144,8.0,8.0,51,0.01,,,0.07,,2013-01-28 15:02:00,
2013-01-28 07:12:00,41.0,24.0,29.89,SE,144,8.0,8.0,51,0.01,,,0.07,,2013-01-28 15:12:00,
2013-01-28 11:01:00,43.0,29.0,29.93,SSE,151,6.0,10.0,57,0.00,,,0.06,,2013-01-28 19:01:00,
2013-01-28 11:12:00,43.0,29.0,29.93,SSE,151,6.0,10.0,57,0.00,,,0.06,,2013-01-28 19:12:00,
2013-01-28 11:21:00,43.0,29.0,29.93,SSE,157,6.0,10.0,57,0.00,,,0.06,,2013-01-28 19:21:00,
2013-01-28 11:32:00,43.0,29.0,29.93,SSE,157,6.0,10.0,57,0.00,,,0.06,,2013-01-28 19:32:00,
2013-01-28 11:42:00,43.0,29.0,29.93,SSE,157,6.0,10.0,57,0.00,,,0.06,,2013-01-28 19:42:00,
2013-01-28 11:52:00,44.0,30.0,29.93,SSE,162,6.0,9.0,58,0.00,,,0.06,,2013-01-28 19:52:00,
2013-01-28 12:01:00,44.0,31.0,29.93,SE,139,9.0,13.0,60,0.00,,,0.05,,2013-01-28 20:01:00,
2013-01-28 12:11:00,44.0,31.0,29.93,SE,139,9.0,13.0,60,0.00,,,0.05,,2013-01-28 20:11:00,
2013-01-28 12:21:00,45.0,32.0,29.93,SSE,162,6.0,10.0,60,0.00,,,0.05,,2013-01-28 20:21:00,
2013-01-28 12:32:00,45.0,32.0,29.93,SSE,162,6.0,10.0,60,0.00,,,0.05,,2013-01-28 20:32:00,
2013-01-28 12:42:00,45.0,32.0,29.93,SSE,162,6.0,10.0,60,0.00,,,0.05,,2013-01-28 20:42:00,
2013-01-28 12:52:00,45.0,32.0,29.92,South,169,6.0,12.0,60,0.00,,,0.05,,2013-01-28 20:52:00,
2013-01-28 13:02:00,46.0,34.0,29.91,SSE,159,7.0,11.0,63,0.00,,,0.05,,2013-01-28 21:02:00,
2013-01-28 13:11:00,46.0,34.0,29.91,SSE,159,7.0,11.0,63,0.00,,,0.05,,2013-01-28 21:11:00,
2013-01-28 13:21:00,47.0,35.0,29.91,SSE,163,4.0,10.0,62,0.00,,,0.05,,2013-01-28 21:21:00,
2013-01-28 13:33:00,47.0,35.0,29.91,SSE,163,4.0,10.0,62,0.00,,,0.05,,2013-01-28 21:33:00,
2013-01-28 13:42:00,47.0,35.0,29.91,SSE,163,4.0,10.0,62,0.00,,,0.05,,2013-01-28 21:42:00,
2013-01-28 13:52:00,47.0,34.0,29.91,SSE,164,7.0,13.0,60,0.00,,,0.05,,2013-01-28 21:52:00,
2013-01-28 14:01:00,47.0,35.0,29.91,SSE,160,8.0,18.0,63,0.00,,,0.05,,2013-01-28 22:01:00,
2013-01-28 14:11:00,47.0,35.0,29.91,SSE,160,8.0,18.0,63,0.00,,,0.05,,2013-01-28 22:11:00,
2013-01-28 14:22:00,47.0,35.0,29.90,South,184,13.0,19.0,63,0.00,,,0.04,,2013-01-28 22:22:00,
2013-01-28 14:32:00,47.0,35.0,29.90,South,184,13.0,19.0,63,0.00,,,0.04,,2013-01-28 22:32:00,
2013-01-28 14:42:00,47.0,35.0,29.90,South,184,13.0,19.0,63,0.00,,,0.04,,2013-01-28 22:42:00,
2013-01-28 14:52:00,46.0,36.0,29.90,South,186,14.0,20.0,67,0.01,,,0.05,,2013-01-28 22:52:00,
2013-01-28 15:01:00,47.0,37.0,29.90,South,173,11.0,18.0,67,0.01,,,0.05,,2013-01-28 23:01:00,
2013-01-28 15:11:00,47.0,37.0,29.90,South,173,11.0,18.0,67,0.01,,,0.05,,2013-01-28 23:11:00,
2013-01-28 15:21:00,47.0,36.0,29.90,South,187,11.0,16.0,66,0.01,,,0.05,,2013-01-28 23:21:00,
2013-01-28 15:32:00,47.0,36.0,29.90,South,187,11.0,16.0,66,0.01,,,0.05,,2013-01-28 23:32:00,
2013-01-28 15:41:00,47.0,36.0,29.90,South,187,11.0,16.0,66,0.01,,,0.05,,2013-01-28 23:41:00,
2013-01-28 15:52:00,49.0,36.0,29.90,SSE,168,6.0,12.0,61,0.00,,,0.05,,2013-01-28 23:52:00,
2013-01-28 16:01:00,48.0,35.0,29.90,SSE,162,5.0,8.0,61,0.00,,,0.05,,2013-01-29 00:01:00,
2013-01-28 16:11:00,48.0,35.0,29.90,SSE,162,5.0,8.0,61,0.00,,,0.05,,2013-01-29 00:11:00,
2013-01-28 16:21:00,48.0,34.0,29.91,SSE,156,5.0,10.0,58,0.00,,,0.05,,2013-01-29 00:21:00,
2013-01-28 16:32:00,48.0,34.0,29.91,SSE,156,5.0,10.0,58,0.00,,,0.05,,2013-01-29 00:32:00,
2013-01-28 16:41:00,48.0,34.0,29.91,SSE,156,5.0,10.0,58,0.00,,,0.05,,2013-01-29 00:41:00,
2013-01-28 16:52:00,48.0,35.0,29.91,SE,143,5.0,10.0,60,0.00,,,0.05,,2013-01-29 00:52:00,
2013-01-28 17:01:00,48.0,30.0,29.91,NE,41,6.0,10.0,50,0.00,,,0.05,,2013-01-29 01:01:00,
2013-01-28 17:11:00,48.0,30.0,29.91,NE,41,6.0,10.0,50,0.00,,,0.05,,2013-01-29 01:11:00,
2013-01-28 17:22:00,48.0,30.0,29.91,NE,41,6.0,10.0,50,0.00,,,0.05,,2013-01-29 01:22:00,
2013-01-28 17:32:00,48.0,30.0,29.91,NE,41,6.0,10.0,50,0.00,,,0.05,,2013-01-29 01:32:00,
2013-01-28 17:41:00,48.0,30.0,29.91,NE,41,6.0,10.0,50,0.00,,,0.05,,2013-01-29 01:41:00,
2013-01-28 17:52:00,47.0,30.0,29.92,ESE,102,12.0,15.0,51,0.00,,,0.04,,2013-01-29 01:52:00,
2013-01-28 18:02:00,46.0,33.0,29.93,ESE,122,15.0,19.0,60,0.00,,,0.04,,2013-01-29 02:02:00,
2013-01-28 18:11:00,46.0,33.0,29.93,ESE,122,15.0,19.0,60,0.00,,,0.04,,2013-01-29 02:11:00,
2013-01-28 18:21:00,45.0,32.0,29.93,SE,133,10.0,22.0,60,0.00,,,0.04,,2013-01-29 02:21:00,
2013-01-28 18:32:00,45.0,32.0,29.93,SE,133,10.0,22.0,60,0.00,,,0.04,,2013-01-29 02:32:00,
2013-01-28 18:41:00,45.0,32.0,29.93,SE,133,10.0,22.0,60,0.00,,,0.04,,2013-01-29 02:41:00,
2013-01-28 18:52:00,45.0,31.0,29.94,ESE,116,13.0,16.0,57,0.00,,,0.04,,2013-01-29 02:52:00,
2013-01-28 19:02:00,46.0,29.0,29.96,ESE,114,11.0,14.0,52,0.00,,,0.04,,2013-01-29 03:02:00,
2013-01-28 19:11:00,46.0,29.0,29.96,ESE,114,11.0,14.0,52,0.00,,,0.04,,2013-01-29 03:11:00,
2013-01-28 19:22:00,46.0,-99.9,29.96,ESE,117,9.0,12.0,-999,0.00,,,0.04,,2013-01-29 03:22:00,
2013-01-28 19:32:00,46.0,-99.9,29.96,ESE,117,9.0,12.0,-999,0.00,,,0.04,,2013-01-29 03:32:00,
2013-01-28 19:42:00,46.0,-99.9,29.96,ESE,117,9.0,12.0,-999,0.00,,,0.04,,2013-01-29 03:42:00,
2013-01-28 19:52:00,45.0,25.0,29.97,NE,50,4.0,8.0,45,0.00,,,0.04,,2013-01-29 03:52:00,
2013-01-28 20:01:00,45.0,26.0,29.97,North,0,0.0,5.0,47,0.00,,,0.04,,2013-01-29 04:01:00,
2013-01-28 20:11:00,45.0,26.0,29.97,North,0,0.0,5.0,47,0.00,,,0.04,,2013-01-29 04:11:00,
2013-01-28 20:21:00,45.0,26.0,29.98,SSW,213,1.0,7.0,47,0.00,,,0.04,,2013-01-29 04:21:00,
2013-01-28 20:32:00,45.0,26.0,29.98,SSW,213,1.0,7.0,47,0.00,,,0.04,,2013-01-29 04:32:00,
2013-01-28 20:41:00,45.0,26.0,29.98,SSW,213,1.0,7.0,47,0.00,,,0.04,,2013-01-29 04:41:00,
2013-01-28 20:52:00,45.0,25.0,29.98,WNW,299,5.0,10.0,46,0.00,,,0.03,,2013-01-29 04:52:00,
2013-01-28 21:03:00,44.0,26.0,29.99,NNW,334,2.0,5.0,48,0.00,,,0.03,,2013-01-29 05:03:00,
2013-01-28 21:12:00,44.0,26.0,29.99,NNW,334,2.0,5.0,48,0.00,,,0.03,,2013-01-29 05:12:00,
2013-01-28 21:21:00,44.0,26.0,29.99,NNW,328,1.0,4.0,49,0.00,,,0.03,,2013-01-29 05:21:00,
2013-01-28 21:32:00,44.0,26.0,29.99,NNW,328,1.0,4.0,49,0.00,,,0.03,,2013-01-29 05:32:00,
2013-01-28 21:42:00,44.0,26.0,29.99,NNW,328,1.0,4.0,49,0.00,,,0.03,,2013-01-29 05:42:00,
2013-01-28 21:52:00,43.0,26.0,30.00,WSW,242,1.0,4.0,51,0.00,,,0.03,,2013-01-29 05:52:00,
2013-01-28 22:01:00,44.0,27.0,30.00,North,0,0.0,6.0,50,0.00,,,0.03,,2013-01-29 06:01:00,
2013-01-28 22:11:00,44.0,27.0,30.00,North,0,0.0,6.0,50,0.00,,,0.03,,2013-01-29 06:11:00,
2013-01-28 22:21:00,44.0,27.0,29.99,North,0,0.0,6.0,50,0.00,,,0.03,,2013-01-29 06:21:00,
2013-01-28 22:31:00,44.0,27.0,29.99,North,0,0.0,6.0,50,0.00,,,0.03,,2013-01-29 06:31:00,
2013-01-28 22:41:00,44.0,27.0,29.99,North,0,0.0,6.0,50,0.00,,,0.03,,2013-01-29 06:41:00,
2013-01-28 22:52:00,44.0,28.0,29.99,WSW,243,5.0,8.0,52,0.00,,,0.03,,2013-01-29 06:52:00,
2013-01-28 23:01:00,43.0,26.0,30.00,North,0,0.0,1.0,51,0.00,,,0.03,,2013-01-29 07:01:00,
2013-01-28 23:11:00,43.0,26.0,30.00,North,0,0.0,1.0,51,0.00,,,0.03,,2013-01-29 07:11:00,
2013-01-28 23:21:00,43.0,26.0,30.00,WSW,237,6.0,8.0,50,0.00,,,0.03,,2013-01-29 07:21:00,
2013-01-28 23:31:00,43.0,26.0,30.00,WSW,237,6.0,8.0,50,0.00,,,0.03,,2013-01-29 07:31:00,
2013-01-28 23:41:00,43.0,26.0,30.00,WSW,237,6.0,8.0,50,0.00,,,0.03,,2013-01-29 07:41:00,
2013-01-28 23:52:00,43.0,27.0,30.00,North,0,0.0,1.0,52,0.00,,,0.03,,2013-01-29 07:52:00,